Terminal Aerodrome Forecast
Issued by NWS

Home | Current Version | Previous Version | Text Only | Print | Product List | Glossary On
Versions: 1 2 3 4 5 6 7 8 9 10 11 12 13 14 15 16 17 18 19 20 21 22
000
FTUS45 KRIW 092300
TAFPNA
TAF
KPNA 092320Z 1000/1024 32010G17KT P6SM VCSH FEW080 SCT100
     FM100200 31007KT P6SM SCT110 BKN200
     FM101600 33010G15KT P6SM VCSH SCT050 BKN100
     FM101900 33012G18KT P6SM VCTS SCT070CB BKN100 OVC200
      AMD LTD TO CLD VIS AND WIND=

USA.gov is the U.S. government's official web portal to all federal, state and local government web resources and services.